sensor_id;sensor_type;location;lat;lon;timestamp;temperature;humidity
45044;DHT22;30784;48.490;9.688;2022-08-14T00:02:16;22.30;36.00
45044;DHT22;30784;48.490;9.688;2022-08-14T00:04:42;22.30;36.00
45044;DHT22;30784;48.490;9.688;2022-08-14T00:07:09;22.20;36.10
45044;DHT22;30784;48.490;9.688;2022-08-14T00:09:36;22.20;36.10
45044;DHT22;30784;48.490;9.688;2022-08-14T00:12:02;22.20;36.20
45044;DHT22;30784;48.490;9.688;2022-08-14T00:14:28;22.20;36.30
45044;DHT22;30784;48.490;9.688;2022-08-14T00:16:54;22.10;36.40
45044;DHT22;30784;48.490;9.688;2022-08-14T00:19:20;22.10;36.50
45044;DHT22;30784;48.490;9.688;2022-08-14T00:21:47;22.10;36.60
45044;DHT22;30784;48.490;9.688;2022-08-14T00:24:12;22.00;36.60
45044;DHT22;30784;48.490;9.688;2022-08-14T00:26:38;22.00;37.20
45044;DHT22;30784;48.490;9.688;2022-08-14T00:29:04;22.00;36.80
45044;DHT22;30784;48.490;9.688;2022-08-14T00:31:30;22.00;36.80
45044;DHT22;30784;48.490;9.688;2022-08-14T00:33:56;22.00;36.80
45044;DHT22;30784;48.490;9.688;2022-08-14T00:36:23;21.90;36.80
45044;DHT22;30784;48.490;9.688;2022-08-14T00:38:48;21.90;36.90
45044;DHT22;30784;48.490;9.688;2022-08-14T00:41:14;21.90;36.90
45044;DHT22;30784;48.490;9.688;2022-08-14T00:43:40;21.80;36.90
45044;DHT22;30784;48.490;9.688;2022-08-14T00:46:08;21.80;37.00
45044;DHT22;30784;48.490;9.688;2022-08-14T00:48:35;21.80;37.00
45044;DHT22;30784;48.490;9.688;2022-08-14T00:51:03;21.80;37.30
45044;DHT22;30784;48.490;9.688;2022-08-14T00:53:29;21.80;37.30
45044;DHT22;30784;48.490;9.688;2022-08-14T00:55:56;21.70;37.20
45044;DHT22;30784;48.490;9.688;2022-08-14T00:58:22;21.70;37.40
45044;DHT22;30784;48.490;9.688;2022-08-14T01:01:09;21.70;37.50
45044;DHT22;30784;48.490;9.688;2022-08-14T01:03:39;21.60;37.20
45044;DHT22;30784;48.490;9.688;2022-08-14T01:06:07;21.60;38.00
45044;DHT22;30784;48.490;9.688;2022-08-14T01:08:35;21.60;37.50
45044;DHT22;30784;48.490;9.688;2022-08-14T01:11:01;21.60;37.60
45044;DHT22;30784;48.490;9.688;2022-08-14T01:13:31;21.50;37.70
45044;DHT22;30784;48.490;9.688;2022-08-14T01:15:59;21.50;37.70
45044;DHT22;30784;48.490;9.688;2022-08-14T01:18:27;21.50;37.70
45044;DHT22;30784;48.490;9.688;2022-08-14T01:21:13;21.40;37.90
45044;DHT22;30784;48.490;9.688;2022-08-14T01:23:48;21.40;37.90
45044;DHT22;30784;48.490;9.688;2022-08-14T01:26:16;21.40;37.90
45044;DHT22;30784;48.490;9.688;2022-08-14T01:28:45;21.40;38.10
45044;DHT22;30784;48.490;9.688;2022-08-14T01:31:15;21.40;37.30
45044;DHT22;30784;48.490;9.688;2022-08-14T01:33:44;21.30;37.90
45044;DHT22;30784;48.490;9.688;2022-08-14T01:36:13;21.30;38.00
45044;DHT22;30784;48.490;9.688;2022-08-14T01:38:42;21.30;38.10
45044;DHT22;30784;48.490;9.688;2022-08-14T01:41:11;21.20;38.20
45044;DHT22;30784;48.490;9.688;2022-08-14T01:43:45;21.20;38.30
45044;DHT22;30784;48.490;9.688;2022-08-14T01:46:14;21.10;38.00
45044;DHT22;30784;48.490;9.688;2022-08-14T01:48:40;21.10;38.30
45044;DHT22;30784;48.490;9.688;2022-08-14T01:51:09;21.10;38.40
45044;DHT22;30784;48.490;9.688;2022-08-14T01:53:36;21.10;38.30
45044;DHT22;30784;48.490;9.688;2022-08-14T01:56:04;21.10;38.60
45044;DHT22;30784;48.490;9.688;2022-08-14T01:58:30;21.10;38.80
45044;DHT22;30784;48.490;9.688;2022-08-14T02:00:56;21.00;38.50
45044;DHT22;30784;48.490;9.688;2022-08-14T02:03:27;21.00;38.60
45044;DHT22;30784;48.490;9.688;2022-08-14T02:05:55;21.00;38.60
45044;DHT22;30784;48.490;9.688;2022-08-14T02:08:23;21.00;38.60
45044;DHT22;30784;48.490;9.688;2022-08-14T02:10:52;21.00;38.60
45044;DHT22;30784;48.490;9.688;2022-08-14T02:13:38;21.00;38.50
45044;DHT22;30784;48.490;9.688;2022-08-14T02:16:04;21.00;38.70
45044;DHT22;30784;48.490;9.688;2022-08-14T02:18:30;21.00;38.70
45044;DHT22;30784;48.490;9.688;2022-08-14T02:20:56;20.90;38.80
45044;DHT22;30784;48.490;9.688;2022-08-14T02:23:23;20.90;38.80
45044;DHT22;30784;48.490;9.688;2022-08-14T02:25:49;20.90;38.90
45044;DHT22;30784;48.490;9.688;2022-08-14T02:28:14;20.90;38.90
45044;DHT22;30784;48.490;9.688;2022-08-14T02:30:40;20.80;38.90
45044;DHT22;30784;48.490;9.688;2022-08-14T02:33:06;20.80;38.90
45044;DHT22;30784;48.490;9.688;2022-08-14T02:35:32;20.80;39.00
45044;DHT22;30784;48.490;9.688;2022-08-14T02:40:23;20.70;38.60
45044;DHT22;30784;48.490;9.688;2022-08-14T02:42:50;20.70;39.10
45044;DHT22;30784;48.490;9.688;2022-08-14T02:45:15;20.70;39.10
45044;DHT22;30784;48.490;9.688;2022-08-14T02:47:41;20.70;39.10
45044;DHT22;30784;48.490;9.688;2022-08-14T02:50:07;20.70;39.20
45044;DHT22;30784;48.490;9.688;2022-08-14T02:52:33;20.60;39.20
45044;DHT22;30784;48.490;9.688;2022-08-14T02:54:59;20.60;39.30
45044;DHT22;30784;48.490;9.688;2022-08-14T02:57:26;20.60;39.40
45044;DHT22;30784;48.490;9.688;2022-08-14T02:59:52;20.60;39.40
45044;DHT22;30784;48.490;9.688;2022-08-14T03:02:18;20.60;39.50
45044;DHT22;30784;48.490;9.688;2022-08-14T03:04:44;20.60;39.60
45044;DHT22;30784;48.490;9.688;2022-08-14T03:07:10;20.60;39.40
45044;DHT22;30784;48.490;9.688;2022-08-14T03:09:37;20.50;39.50
45044;DHT22;30784;48.490;9.688;2022-08-14T03:12:04;20.50;39.50
45044;DHT22;30784;48.490;9.688;2022-08-14T03:14:30;20.50;39.50
45044;DHT22;30784;48.490;9.688;2022-08-14T03:17:00;20.50;39.60
45044;DHT22;30784;48.490;9.688;2022-08-14T03:19:25;20.50;40.10
45044;DHT22;30784;48.490;9.688;2022-08-14T03:21:52;20.50;39.70
45044;DHT22;30784;48.490;9.688;2022-08-14T03:24:18;20.50;39.60
45044;DHT22;30784;48.490;9.688;2022-08-14T03:26:47;20.40;39.80
45044;DHT22;30784;48.490;9.688;2022-08-14T03:29:15;20.40;39.70
45044;DHT22;30784;48.490;9.688;2022-08-14T03:31:45;20.40;39.80
45044;DHT22;30784;48.490;9.688;2022-08-14T03:34:13;20.40;39.80
45044;DHT22;30784;48.490;9.688;2022-08-14T03:36:39;20.40;39.90
45044;DHT22;30784;48.490;9.688;2022-08-14T03:39:07;20.30;39.90
45044;DHT22;30784;48.490;9.688;2022-08-14T03:41:33;20.30;40.00
45044;DHT22;30784;48.490;9.688;2022-08-14T03:44:00;20.20;40.00
45044;DHT22;30784;48.490;9.688;2022-08-14T03:46:29;20.20;39.90
45044;DHT22;30784;48.490;9.688;2022-08-14T03:48:55;20.20;39.90
45044;DHT22;30784;48.490;9.688;2022-08-14T03:51:22;20.20;40.00
45044;DHT22;30784;48.490;9.688;2022-08-14T03:53:51;20.20;40.10
45044;DHT22;30784;48.490;9.688;2022-08-14T03:56:17;20.20;40.20
45044;DHT22;30784;48.490;9.688;2022-08-14T03:58:49;20.10;40.20
45044;DHT22;30784;48.490;9.688;2022-08-14T04:01:18;20.10;40.20
45044;DHT22;30784;48.490;9.688;2022-08-14T04:03:49;20.10;40.20
45044;DHT22;30784;48.490;9.688;2022-08-14T04:06:16;20.10;40.30
45044;DHT22;30784;48.490;9.688;2022-08-14T04:08:45;20.10;40.30
45044;DHT22;30784;48.490;9.688;2022-08-14T04:11:11;20.10;40.30
45044;DHT22;30784;48.490;9.688;2022-08-14T04:13:40;20.10;40.40
45044;DHT22;30784;48.490;9.688;2022-08-14T04:16:12;20.10;40.50
45044;DHT22;30784;48.490;9.688;2022-08-14T04:18:44;20.10;40.40
45044;DHT22;30784;48.490;9.688;2022-08-14T04:21:11;20.00;40.40
45044;DHT22;30784;48.490;9.688;2022-08-14T04:23:38;20.10;40.50
45044;DHT22;30784;48.490;9.688;2022-08-14T04:26:06;20.00;40.60
45044;DHT22;30784;48.490;9.688;2022-08-14T04:28:33;20.00;40.60
45044;DHT22;30784;48.490;9.688;2022-08-14T04:31:01;20.00;40.60
45044;DHT22;30784;48.490;9.688;2022-08-14T04:33:27;19.90;40.60
45044;DHT22;30784;48.490;9.688;2022-08-14T04:35:53;19.90;40.70
45044;DHT22;30784;48.490;9.688;2022-08-14T04:38:20;19.90;40.70
45044;DHT22;30784;48.490;9.688;2022-08-14T04:41:05;19.90;40.80
45044;DHT22;30784;48.490;9.688;2022-08-14T04:43:49;19.90;40.70
45044;DHT22;30784;48.490;9.688;2022-08-14T04:46:18;19.90;40.70
45044;DHT22;30784;48.490;9.688;2022-08-14T04:48:44;19.90;41.00
45044;DHT22;30784;48.490;9.688;2022-08-14T04:51:11;19.90;41.00
45044;DHT22;30784;48.490;9.688;2022-08-14T04:53:39;19.90;41.00
45044;DHT22;30784;48.490;9.688;2022-08-14T04:56:07;19.90;41.00
45044;DHT22;30784;48.490;9.688;2022-08-14T04:58:33;19.90;41.00
45044;DHT22;30784;48.490;9.688;2022-08-14T05:01:01;19.90;41.30
45044;DHT22;30784;48.490;9.688;2022-08-14T05:03:29;19.90;41.20
45044;DHT22;30784;48.490;9.688;2022-08-14T05:05:58;19.90;41.30
45044;DHT22;30784;48.490;9.688;2022-08-14T05:08:25;19.90;41.30
45044;DHT22;30784;48.490;9.688;2022-08-14T05:10:53;20.00;41.40
45044;DHT22;30784;48.490;9.688;2022-08-14T05:13:20;20.00;41.60
45044;DHT22;30784;48.490;9.688;2022-08-14T05:15:47;20.00;41.40
45044;DHT22;30784;48.490;9.688;2022-08-14T05:18:16;20.10;41.70
45044;DHT22;30784;48.490;9.688;2022-08-14T05:20:45;20.10;41.80
45044;DHT22;30784;48.490;9.688;2022-08-14T05:23:17;20.10;41.60
45044;DHT22;30784;48.490;9.688;2022-08-14T05:25:43;20.20;41.70
45044;DHT22;30784;48.490;9.688;2022-08-14T05:28:11;20.30;42.00
45044;DHT22;30784;48.490;9.688;2022-08-14T05:30:38;20.30;41.90
45044;DHT22;30784;48.490;9.688;2022-08-14T05:33:05;20.40;41.90
45044;DHT22;30784;48.490;9.688;2022-08-14T05:35:31;20.40;41.90
45044;DHT22;30784;48.490;9.688;2022-08-14T05:37:58;20.40;41.80
45044;DHT22;30784;48.490;9.688;2022-08-14T05:40:24;20.50;41.80
45044;DHT22;30784;48.490;9.688;2022-08-14T05:42:51;20.60;41.90
45044;DHT22;30784;48.490;9.688;2022-08-14T05:45:16;20.70;41.80
45044;DHT22;30784;48.490;9.688;2022-08-14T05:47:43;20.80;41.80
45044;DHT22;30784;48.490;9.688;2022-08-14T05:50:13;20.90;41.90
45044;DHT22;30784;48.490;9.688;2022-08-14T05:52:39;21.00;41.90
45044;DHT22;30784;48.490;9.688;2022-08-14T05:55:07;21.10;41.80
45044;DHT22;30784;48.490;9.688;2022-08-14T05:57:33;21.30;41.70
45044;DHT22;30784;48.490;9.688;2022-08-14T05:59:59;21.40;41.60
45044;DHT22;30784;48.490;9.688;2022-08-14T06:02:24;21.50;41.90
45044;DHT22;30784;48.490;9.688;2022-08-14T06:04:50;21.60;41.40
45044;DHT22;30784;48.490;9.688;2022-08-14T06:07:16;21.70;41.10
45044;DHT22;30784;48.490;9.688;2022-08-14T06:09:41;21.80;41.00
45044;DHT22;30784;48.490;9.688;2022-08-14T06:12:07;21.90;40.90
45044;DHT22;30784;48.490;9.688;2022-08-14T06:14:33;22.00;40.70
45044;DHT22;30784;48.490;9.688;2022-08-14T06:16:59;22.10;40.70
45044;DHT22;30784;48.490;9.688;2022-08-14T06:19:25;22.30;40.70
45044;DHT22;30784;48.490;9.688;2022-08-14T06:21:50;22.30;40.40
45044;DHT22;30784;48.490;9.688;2022-08-14T06:24:16;22.40;40.20
45044;DHT22;30784;48.490;9.688;2022-08-14T06:26:43;22.50;40.20
45044;DHT22;30784;48.490;9.688;2022-08-14T06:29:09;22.60;40.30
45044;DHT22;30784;48.490;9.688;2022-08-14T06:31:35;22.80;40.30
45044;DHT22;30784;48.490;9.688;2022-08-14T06:34:00;22.90;40.00
45044;DHT22;30784;48.490;9.688;2022-08-14T06:36:26;23.00;39.80
45044;DHT22;30784;48.490;9.688;2022-08-14T06:38:52;23.10;39.60
45044;DHT22;30784;48.490;9.688;2022-08-14T06:41:17;23.30;39.60
45044;DHT22;30784;48.490;9.688;2022-08-14T06:43:43;23.40;39.00
45044;DHT22;30784;48.490;9.688;2022-08-14T06:46:08;23.50;38.80
45044;DHT22;30784;48.490;9.688;2022-08-14T06:48:34;23.70;38.40
45044;DHT22;30784;48.490;9.688;2022-08-14T06:51:00;23.80;37.90
45044;DHT22;30784;48.490;9.688;2022-08-14T06:53:25;23.90;37.80
45044;DHT22;30784;48.490;9.688;2022-08-14T06:55:51;24.00;37.50
45044;DHT22;30784;48.490;9.688;2022-08-14T06:58:17;24.20;36.90
45044;DHT22;30784;48.490;9.688;2022-08-14T07:00:44;24.30;36.90
45044;DHT22;30784;48.490;9.688;2022-08-14T07:03:31;24.40;36.70
45044;DHT22;30784;48.490;9.688;2022-08-14T07:06:16;24.60;36.50
45044;DHT22;30784;48.490;9.688;2022-08-14T07:08:42;24.70;36.20
45044;DHT22;30784;48.490;9.688;2022-08-14T07:11:09;24.90;36.20
45044;DHT22;30784;48.490;9.688;2022-08-14T07:13:35;25.00;36.00
45044;DHT22;30784;48.490;9.688;2022-08-14T07:16:00;25.20;36.00
45044;DHT22;30784;48.490;9.688;2022-08-14T07:18:29;25.40;35.80
45044;DHT22;30784;48.490;9.688;2022-08-14T07:20:55;25.50;35.50
45044;DHT22;30784;48.490;9.688;2022-08-14T07:23:22;25.70;35.00
45044;DHT22;30784;48.490;9.688;2022-08-14T07:25:50;25.90;34.80
45044;DHT22;30784;48.490;9.688;2022-08-14T07:28:21;26.00;35.00
45044;DHT22;30784;48.490;9.688;2022-08-14T07:30:49;26.20;34.10
45044;DHT22;30784;48.490;9.688;2022-08-14T07:33:15;26.30;33.70
45044;DHT22;30784;48.490;9.688;2022-08-14T07:35:40;26.30;33.50
45044;DHT22;30784;48.490;9.688;2022-08-14T07:38:07;26.30;33.20
45044;DHT22;30784;48.490;9.688;2022-08-14T07:40:33;26.30;32.90
45044;DHT22;30784;48.490;9.688;2022-08-14T07:43:00;26.30;32.80
45044;DHT22;30784;48.490;9.688;2022-08-14T07:45:27;26.20;32.80
45044;DHT22;30784;48.490;9.688;2022-08-14T07:47:53;26.10;32.60
45044;DHT22;30784;48.490;9.688;2022-08-14T07:50:22;26.00;33.10
45044;DHT22;30784;48.490;9.688;2022-08-14T07:52:48;26.00;33.30
45044;DHT22;30784;48.490;9.688;2022-08-14T07:55:16;25.90;33.00
45044;DHT22;30784;48.490;9.688;2022-08-14T07:57:44;25.90;32.70
45044;DHT22;30784;48.490;9.688;2022-08-14T08:00:19;25.90;32.80
45044;DHT22;30784;48.490;9.688;2022-08-14T08:02:48;25.90;32.90
45044;DHT22;30784;48.490;9.688;2022-08-14T08:05:15;26.00;32.70
45044;DHT22;30784;48.490;9.688;2022-08-14T08:07:42;26.00;32.70
45044;DHT22;30784;48.490;9.688;2022-08-14T08:10:14;26.10;32.90
45044;DHT22;30784;48.490;9.688;2022-08-14T08:13:03;26.20;32.60
45044;DHT22;30784;48.490;9.688;2022-08-14T08:15:31;26.30;32.40
45044;DHT22;30784;48.490;9.688;2022-08-14T08:17:59;26.40;32.20
45044;DHT22;30784;48.490;9.688;2022-08-14T08:20:28;26.40;32.60
45044;DHT22;30784;48.490;9.688;2022-08-14T08:22:54;26.60;32.30
45044;DHT22;30784;48.490;9.688;2022-08-14T08:25:24;26.70;31.70
45044;DHT22;30784;48.490;9.688;2022-08-14T08:28:01;26.80;31.60
45044;DHT22;30784;48.490;9.688;2022-08-14T08:30:29;26.90;31.60
45044;DHT22;30784;48.490;9.688;2022-08-14T08:32:56;27.00;31.20
45044;DHT22;30784;48.490;9.688;2022-08-14T08:35:24;27.10;31.10
45044;DHT22;30784;48.490;9.688;2022-08-14T08:37:52;27.20;31.10
45044;DHT22;30784;48.490;9.688;2022-08-14T08:42:48;27.50;31.00
45044;DHT22;30784;48.490;9.688;2022-08-14T08:45:15;27.60;30.90
45044;DHT22;30784;48.490;9.688;2022-08-14T08:47:42;27.80;31.20
45044;DHT22;30784;48.490;9.688;2022-08-14T08:50:33;27.90;30.30
45044;DHT22;30784;48.490;9.688;2022-08-14T08:53:01;28.00;30.00
45044;DHT22;30784;48.490;9.688;2022-08-14T08:55:29;28.20;29.60
45044;DHT22;30784;48.490;9.688;2022-08-14T08:58:04;28.20;29.60
45044;DHT22;30784;48.490;9.688;2022-08-14T09:00:31;28.30;29.30
45044;DHT22;30784;48.490;9.688;2022-08-14T09:05:28;28.30;28.90
45044;DHT22;30784;48.490;9.688;2022-08-14T09:07:53;28.30;29.20
45044;DHT22;30784;48.490;9.688;2022-08-14T09:10:19;28.30;29.20
45044;DHT22;30784;48.490;9.688;2022-08-14T09:12:45;28.40;29.20
45044;DHT22;30784;48.490;9.688;2022-08-14T09:15:11;28.50;29.20
45044;DHT22;30784;48.490;9.688;2022-08-14T09:17:37;28.60;29.10
45044;DHT22;30784;48.490;9.688;2022-08-14T09:20:03;28.70;28.90
45044;DHT22;30784;48.490;9.688;2022-08-14T09:22:29;28.80;28.90
45044;DHT22;30784;48.490;9.688;2022-08-14T09:24:55;28.90;29.00
45044;DHT22;30784;48.490;9.688;2022-08-14T09:27:21;29.00;28.90
45044;DHT22;30784;48.490;9.688;2022-08-14T09:29:47;29.00;28.80
45044;DHT22;30784;48.490;9.688;2022-08-14T09:32:21;29.10;28.60
45044;DHT22;30784;48.490;9.688;2022-08-14T09:37:52;29.20;28.50
45044;DHT22;30784;48.490;9.688;2022-08-14T09:47:58;29.40;28.60
45044;DHT22;30784;48.490;9.688;2022-08-14T09:50:29;29.50;28.50
45044;DHT22;30784;48.490;9.688;2022-08-14T09:53:04;29.50;28.40
45044;DHT22;30784;48.490;9.688;2022-08-14T09:55:33;29.60;28.30
45044;DHT22;30784;48.490;9.688;2022-08-14T09:58:17;29.80;28.30
45044;DHT22;30784;48.490;9.688;2022-08-14T10:00:45;29.90;28.40
45044;DHT22;30784;48.490;9.688;2022-08-14T10:03:11;30.00;28.10
45044;DHT22;30784;48.490;9.688;2022-08-14T10:05:38;30.10;28.10
45044;DHT22;30784;48.490;9.688;2022-08-14T10:08:16;30.20;27.30
45044;DHT22;30784;48.490;9.688;2022-08-14T10:10:42;30.30;26.90
45044;DHT22;30784;48.490;9.688;2022-08-14T10:13:28;30.20;26.80
45044;DHT22;30784;48.490;9.688;2022-08-14T10:15:58;30.20;26.50
45044;DHT22;30784;48.490;9.688;2022-08-14T10:18:26;30.20;26.60
45044;DHT22;30784;48.490;9.688;2022-08-14T10:21:00;30.10;26.60
45044;DHT22;30784;48.490;9.688;2022-08-14T10:23:43;30.10;26.90
45044;DHT22;30784;48.490;9.688;2022-08-14T10:26:14;30.20;27.00
45044;DHT22;30784;48.490;9.688;2022-08-14T10:28:44;30.20;27.20
45044;DHT22;30784;48.490;9.688;2022-08-14T10:31:27;30.30;26.90
45044;DHT22;30784;48.490;9.688;2022-08-14T10:34:17;30.30;27.00
45044;DHT22;30784;48.490;9.688;2022-08-14T10:36:44;30.40;27.20
45044;DHT22;30784;48.490;9.688;2022-08-14T10:39:21;30.50;27.00
45044;DHT22;30784;48.490;9.688;2022-08-14T10:41:47;30.60;26.70
45044;DHT22;30784;48.490;9.688;2022-08-14T10:44:15;30.60;26.50
45044;DHT22;30784;48.490;9.688;2022-08-14T10:46:50;30.60;26.50
45044;DHT22;30784;48.490;9.688;2022-08-14T10:49:27;30.60;26.50
45044;DHT22;30784;48.490;9.688;2022-08-14T10:51:55;30.70;26.60
45044;DHT22;30784;48.490;9.688;2022-08-14T10:54:45;30.70;26.90
45044;DHT22;30784;48.490;9.688;2022-08-14T10:57:19;30.80;26.90
45044;DHT22;30784;48.490;9.688;2022-08-14T11:00:00;30.90;26.80
45044;DHT22;30784;48.490;9.688;2022-08-14T11:02:35;30.90;26.90
45044;DHT22;30784;48.490;9.688;2022-08-14T11:05:14;31.10;27.10
45044;DHT22;30784;48.490;9.688;2022-08-14T11:10:20;31.30;27.00
45044;DHT22;30784;48.490;9.688;2022-08-14T11:12:51;31.40;26.80
45044;DHT22;30784;48.490;9.688;2022-08-14T11:15:25;31.50;26.70
45044;DHT22;30784;48.490;9.688;2022-08-14T11:17:53;31.70;26.90
45044;DHT22;30784;48.490;9.688;2022-08-14T11:20:26;31.80;26.70
45044;DHT22;30784;48.490;9.688;2022-08-14T11:22:56;31.90;26.70
45044;DHT22;30784;48.490;9.688;2022-08-14T11:25:24;32.00;26.50
45044;DHT22;30784;48.490;9.688;2022-08-14T11:27:52;32.20;26.10
45044;DHT22;30784;48.490;9.688;2022-08-14T11:30:20;32.20;25.70
45044;DHT22;30784;48.490;9.688;2022-08-14T11:32:48;32.20;25.70
45044;DHT22;30784;48.490;9.688;2022-08-14T11:35:19;32.10;25.80
45044;DHT22;30784;48.490;9.688;2022-08-14T11:37:57;32.10;25.40
45044;DHT22;30784;48.490;9.688;2022-08-14T11:40:26;32.00;25.80
45044;DHT22;30784;48.490;9.688;2022-08-14T11:42:53;31.90;25.80
45044;DHT22;30784;48.490;9.688;2022-08-14T11:45:22;31.80;25.00
45044;DHT22;30784;48.490;9.688;2022-08-14T11:47:50;31.80;24.90
45044;DHT22;30784;48.490;9.688;2022-08-14T11:50:22;31.80;24.30
45044;DHT22;30784;48.490;9.688;2022-08-14T11:52:49;31.70;24.20
45044;DHT22;30784;48.490;9.688;2022-08-14T11:55:15;31.70;24.00
45044;DHT22;30784;48.490;9.688;2022-08-14T11:57:42;31.70;24.10
45044;DHT22;30784;48.490;9.688;2022-08-14T12:00:11;31.80;24.30
45044;DHT22;30784;48.490;9.688;2022-08-14T12:02:52;32.00;24.70
45044;DHT22;30784;48.490;9.688;2022-08-14T12:05:38;32.10;24.80
45044;DHT22;30784;48.490;9.688;2022-08-14T12:08:07;32.30;24.60
45044;DHT22;30784;48.490;9.688;2022-08-14T12:10:34;32.50;24.50
45044;DHT22;30784;48.490;9.688;2022-08-14T12:13:17;32.60;23.90
45044;DHT22;30784;48.490;9.688;2022-08-14T12:15:45;32.70;23.40
45044;DHT22;30784;48.490;9.688;2022-08-14T12:18:11;32.70;23.40
45044;DHT22;30784;48.490;9.688;2022-08-14T12:20:41;32.80;23.40
45044;DHT22;30784;48.490;9.688;2022-08-14T12:23:20;32.80;23.20
45044;DHT22;30784;48.490;9.688;2022-08-14T12:25:47;32.80;23.20
45044;DHT22;30784;48.490;9.688;2022-08-14T12:28:13;32.80;23.10
45044;DHT22;30784;48.490;9.688;2022-08-14T12:30:42;32.90;23.10
45044;DHT22;30784;48.490;9.688;2022-08-14T12:33:24;33.00;22.60
45044;DHT22;30784;48.490;9.688;2022-08-14T12:35:52;33.00;22.60
45044;DHT22;30784;48.490;9.688;2022-08-14T12:38:18;33.00;22.30
45044;DHT22;30784;48.490;9.688;2022-08-14T12:40:55;33.10;22.10
45044;DHT22;30784;48.490;9.688;2022-08-14T12:43:20;33.00;21.70
45044;DHT22;30784;48.490;9.688;2022-08-14T12:45:48;33.00;22.10
45044;DHT22;30784;48.490;9.688;2022-08-14T12:48:20;33.10;22.40
45044;DHT22;30784;48.490;9.688;2022-08-14T12:50:47;33.10;22.40
45044;DHT22;30784;48.490;9.688;2022-08-14T12:53:16;33.20;22.30
45044;DHT22;30784;48.490;9.688;2022-08-14T12:55:43;33.20;22.40
45044;DHT22;30784;48.490;9.688;2022-08-14T12:58:10;33.20;22.30
45044;DHT22;30784;48.490;9.688;2022-08-14T13:00:38;33.20;22.40
45044;DHT22;30784;48.490;9.688;2022-08-14T13:03:25;33.30;22.30
45044;DHT22;30784;48.490;9.688;2022-08-14T13:05:51;33.30;22.40
45044;DHT22;30784;48.490;9.688;2022-08-14T13:08:17;33.30;22.20
45044;DHT22;30784;48.490;9.688;2022-08-14T13:10:44;33.30;22.20
45044;DHT22;30784;48.490;9.688;2022-08-14T13:13:17;33.30;22.30
45044;DHT22;30784;48.490;9.688;2022-08-14T13:15:45;33.30;22.30
45044;DHT22;30784;48.490;9.688;2022-08-14T13:18:13;33.40;22.30
45044;DHT22;30784;48.490;9.688;2022-08-14T13:20:40;33.40;21.70
45044;DHT22;30784;48.490;9.688;2022-08-14T13:23:07;33.40;21.60
45044;DHT22;30784;48.490;9.688;2022-08-14T13:25:34;33.40;21.60
45044;DHT22;30784;48.490;9.688;2022-08-14T13:28:03;33.30;21.50
45044;DHT22;30784;48.490;9.688;2022-08-14T13:30:31;33.30;21.50
45044;DHT22;30784;48.490;9.688;2022-08-14T13:32:57;33.30;21.50
45044;DHT22;30784;48.490;9.688;2022-08-14T13:35:25;33.30;21.60
45044;DHT22;30784;48.490;9.688;2022-08-14T13:37:51;33.30;21.70
45044;DHT22;30784;48.490;9.688;2022-08-14T13:40:18;33.30;21.80
45044;DHT22;30784;48.490;9.688;2022-08-14T13:42:46;33.20;21.80
45044;DHT22;30784;48.490;9.688;2022-08-14T13:45:13;33.20;21.70
45044;DHT22;30784;48.490;9.688;2022-08-14T13:47:40;33.10;21.60
45044;DHT22;30784;48.490;9.688;2022-08-14T13:50:08;33.10;21.70
45044;DHT22;30784;48.490;9.688;2022-08-14T13:52:42;33.00;21.70
45044;DHT22;30784;48.490;9.688;2022-08-14T13:55:09;32.90;21.80
45044;DHT22;30784;48.490;9.688;2022-08-14T13:57:41;32.90;21.90
45044;DHT22;30784;48.490;9.688;2022-08-14T14:00:11;32.90;21.80
45044;DHT22;30784;48.490;9.688;2022-08-14T14:02:41;32.90;21.80
45044;DHT22;30784;48.490;9.688;2022-08-14T14:05:09;32.90;21.90
45044;DHT22;30784;48.490;9.688;2022-08-14T14:07:37;32.90;21.80
45044;DHT22;30784;48.490;9.688;2022-08-14T14:10:06;33.00;21.60
45044;DHT22;30784;48.490;9.688;2022-08-14T14:12:34;33.00;21.60
45044;DHT22;30784;48.490;9.688;2022-08-14T14:15:03;33.10;21.40
45044;DHT22;30784;48.490;9.688;2022-08-14T14:17:29;33.20;21.30
45044;DHT22;30784;48.490;9.688;2022-08-14T14:19:57;33.20;21.30
45044;DHT22;30784;48.490;9.688;2022-08-14T14:22:23;33.20;21.20
45044;DHT22;30784;48.490;9.688;2022-08-14T14:24:51;33.30;21.00
45044;DHT22;30784;48.490;9.688;2022-08-14T14:27:18;33.30;21.40
45044;DHT22;30784;48.490;9.688;2022-08-14T14:29:47;33.50;21.20
45044;DHT22;30784;48.490;9.688;2022-08-14T14:32:16;33.60;21.30
45044;DHT22;30784;48.490;9.688;2022-08-14T14:34:42;33.80;21.10
45044;DHT22;30784;48.490;9.688;2022-08-14T14:37:10;33.90;21.10
45044;DHT22;30784;48.490;9.688;2022-08-14T14:39:38;34.10;21.60
45044;DHT22;30784;48.490;9.688;2022-08-14T14:42:05;34.20;21.10
45044;DHT22;30784;48.490;9.688;2022-08-14T14:44:35;34.30;21.00
45044;DHT22;30784;48.490;9.688;2022-08-14T14:47:07;34.40;20.90
45044;DHT22;30784;48.490;9.688;2022-08-14T14:49:33;34.60;21.00
45044;DHT22;30784;48.490;9.688;2022-08-14T14:51:59;34.80;20.90
45044;DHT22;30784;48.490;9.688;2022-08-14T14:54:30;34.90;20.80
45044;DHT22;30784;48.490;9.688;2022-08-14T14:56:58;35.00;20.70
45044;DHT22;30784;48.490;9.688;2022-08-14T14:59:25;35.00;21.00
45044;DHT22;30784;48.490;9.688;2022-08-14T15:01:53;34.90;20.60
45044;DHT22;30784;48.490;9.688;2022-08-14T15:04:21;35.00;20.50
45044;DHT22;30784;48.490;9.688;2022-08-14T15:06:48;35.00;20.50
45044;DHT22;30784;48.490;9.688;2022-08-14T15:09:14;35.10;20.50
45044;DHT22;30784;48.490;9.688;2022-08-14T15:11:39;35.10;20.40
45044;DHT22;30784;48.490;9.688;2022-08-14T15:14:06;35.20;20.40
45044;DHT22;30784;48.490;9.688;2022-08-14T15:16:32;35.20;20.30
45044;DHT22;30784;48.490;9.688;2022-08-14T15:18:58;35.30;20.30
45044;DHT22;30784;48.490;9.688;2022-08-14T15:21:23;35.30;20.20
45044;DHT22;30784;48.490;9.688;2022-08-14T15:23:49;35.30;20.20
45044;DHT22;30784;48.490;9.688;2022-08-14T15:26:16;35.30;20.10
45044;DHT22;30784;48.490;9.688;2022-08-14T15:28:42;35.30;20.10
45044;DHT22;30784;48.490;9.688;2022-08-14T15:31:07;35.20;20.10
45044;DHT22;30784;48.490;9.688;2022-08-14T15:33:33;35.10;20.20
45044;DHT22;30784;48.490;9.688;2022-08-14T15:36:17;35.00;20.20
45044;DHT22;30784;48.490;9.688;2022-08-14T15:38:44;34.90;20.10
45044;DHT22;30784;48.490;9.688;2022-08-14T15:41:11;34.80;20.00
45044;DHT22;30784;48.490;9.688;2022-08-14T15:43:37;34.60;20.00
45044;DHT22;30784;48.490;9.688;2022-08-14T15:46:05;34.40;20.00
45044;DHT22;30784;48.490;9.688;2022-08-14T15:48:31;34.20;20.10
45044;DHT22;30784;48.490;9.688;2022-08-14T15:50:57;34.10;20.10
45044;DHT22;30784;48.490;9.688;2022-08-14T15:53:23;34.00;20.20
45044;DHT22;30784;48.490;9.688;2022-08-14T15:55:54;34.00;20.40
45044;DHT22;30784;48.490;9.688;2022-08-14T15:58:21;34.00;20.30
45044;DHT22;30784;48.490;9.688;2022-08-14T16:00:48;34.00;20.40